Time;durP1;ratioP1;P1;durP2;ratioP2;P2;SDS_P1;SDS_P2;PMS_P1;PMS_P2;Temp;Humidity;BMP_temperature;BMP_pressure;BME280_temperature;BME280_humidity;BME280_pressure;Samples;Min_cycle;Max_cycle;Signal;HPM_P1;HPM_P2
2021/07/07 00:00:24;;;;;;;11.20;4.20;;;;;;;;;;5001364;28;20819;-50
2021/07/07 00:02:51;;;;;;;6.78;3.53;;;;;;;;;;5012298;28;20053;-48
2021/07/07 00:05:18;;;;;;;9.77;3.00;;;;;;;;;;5007969;28;20132;-46
2021/07/07 00:07:45;;;;;;;10.23;3.30;;;;;;;;;;5015085;28;20085;-47
2021/07/07 00:10:13;;;;;;;7.25;3.20;;;;;;;;;;5008581;28;20474;-46
2021/07/07 00:12:40;;;;;;;8.65;3.47;;;;;;;;;;5019854;28;20135;-45
2021/07/07 00:15:10;;;;;;;10.30;3.30;;;;;;;;;;5026602;28;20512;-48
2021/07/07 00:17:37;;;;;;;6.97;2.92;;;;;;;;;;5013608;28;20164;-48
2021/07/07 00:20:05;;;;;;;8.15;3.45;;;;;;;;;;5024608;28;20483;-47
2021/07/07 00:22:32;;;;;;;9.35;3.03;;;;;;;;;;5015635;28;20064;-46
2021/07/07 00:24:58;;;;;;;11.48;3.55;;;;;;;;;;5023828;28;20141;-46
2021/07/07 00:27:24;;;;;;;7.13;3.13;;;;;;;;;;5015001;28;20491;-48
2021/07/07 00:29:51;;;;;;;10.23;3.40;;;;;;;;;;5017436;28;20730;-48
2021/07/07 00:32:19;;;;;;;7.90;3.17;;;;;;;;;;5015676;28;20096;-46
2021/07/07 00:34:46;;;;;;;9.00;3.08;;;;;;;;;;5018947;28;20164;-47
2021/07/07 00:37:12;;;;;;;8.38;2.90;;;;;;;;;;5011299;28;20561;-48
2021/07/07 00:39:39;;;;;;;8.50;3.28;;;;;;;;;;5011816;28;20153;-48
2021/07/07 00:42:06;;;;;;;8.13;3.00;;;;;;;;;;5011068;28;20152;-47
2021/07/07 00:44:33;;;;;;;9.32;3.38;;;;;;;;;;5016139;28;20133;-47
2021/07/07 00:46:59;;;;;;;8.25;3.40;;;;;;;;;;5015533;28;20136;-47
2021/07/07 00:49:25;;;;;;;11.48;3.45;;;;;;;;;;5013303;28;20137;-48
2021/07/07 00:51:52;;;;;;;9.73;3.22;;;;;;;;;;5019465;28;20130;-47
2021/07/07 00:54:19;;;;;;;9.70;3.20;;;;;;;;;;5019273;28;20048;-48
2021/07/07 00:56:47;;;;;;;8.50;3.22;;;;;;;;;;5005952;28;20136;-47
2021/07/07 00:59:14;;;;;;;13.82;3.85;;;;;;;;;;5021810;28;20477;-47
2021/07/07 01:01:41;;;;;;;8.70;3.03;;;;;;;;;;5019033;28;20056;-47
2021/07/07 01:04:07;;;;;;;10.25;3.30;;;;;;;;;;5020849;28;20053;-46
2021/07/07 01:06:34;;;;;;;8.77;3.42;;;;;;;;;;5015239;28;20475;-47
2021/07/07 01:09:00;;;;;;;10.10;3.65;;;;;;;;;;5025260;28;20412;-48
2021/07/07 01:11:26;;;;;;;12.57;6.22;;;;;;;;;;5020484;28;20089;-47
2021/07/07 01:13:53;;;;;;;10.85;4.80;;;;;;;;;;5014474;28;20088;-46
2021/07/07 01:16:20;;;;;;;11.32;5.10;;;;;;;;;;5027335;28;20077;-46
2021/07/07 01:18:47;;;;;;;12.20;4.25;;;;;;;;;;5017117;28;20834;-47
2021/07/07 01:21:14;;;;;;;15.23;3.95;;;;;;;;;;5016449;28;20502;-47
2021/07/07 01:23:40;;;;;;;11.05;3.95;;;;;;;;;;5016978;28;20049;-48
2021/07/07 01:26:06;;;;;;;7.15;3.72;;;;;;;;;;5019168;28;20091;-47
2021/07/07 01:28:33;;;;;;;6.70;3.50;;;;;;;;;;5010033;28;20124;-46
2021/07/07 01:30:59;;;;;;;9.35;3.58;;;;;;;;;;5019456;28;20128;-47
2021/07/07 01:33:26;;;;;;;8.77;3.08;;;;;;;;;;5009618;28;20057;-46
2021/07/07 01:35:52;;;;;;;10.10;4.25;;;;;;;;;;5015941;28;20416;-48
2021/07/07 01:38:19;;;;;;;10.45;4.13;;;;;;;;;;5022854;28;20343;-46
2021/07/07 01:40:45;;;;;;;8.77;3.70;;;;;;;;;;5012199;28;20607;-46
2021/07/07 01:43:12;;;;;;;9.43;4.43;;;;;;;;;;5022912;28;20089;-47
2021/07/07 01:45:38;;;;;;;8.80;4.20;;;;;;;;;;5016446;28;20150;-46
2021/07/07 01:48:04;;;;;;;10.77;4.28;;;;;;;;;;5027497;28;20045;-48
2021/07/07 01:50:31;;;;;;;8.30;3.70;;;;;;;;;;5019978;28;20133;-48
2021/07/07 01:52:58;;;;;;;8.13;3.78;;;;;;;;;;5013046;28;20496;-48
2021/07/07 01:55:27;;;;;;;9.05;3.85;;;;;;;;;;5027898;28;20085;-47
2021/07/07 01:57:54;;;;;;;6.93;3.75;;;;;;;;;;5016418;28;20217;-46
2021/07/07 02:00:20;;;;;;;7.40;3.95;;;;;;;;;;5015872;28;20168;-48
2021/07/07 02:02:47;;;;;;;5.20;3.53;;;;;;;;;;5017648;28;20139;-47
2021/07/07 02:05:15;;;;;;;7.38;3.65;;;;;;;;;;5028054;28;20827;-46
2021/07/07 02:07:42;;;;;;;4.93;3.30;;;;;;;;;;5008039;28;20103;-47
2021/07/07 02:10:11;;;;;;;8.02;4.00;;;;;;;;;;5015465;28;20054;-47
2021/07/07 02:12:38;;;;;;;;;;;;;;;;;;5018071;28;20104;-49
2021/07/07 02:15:06;;;;;;;10.48;3.95;;;;;;;;;;5020410;28;20020;-47
2021/07/07 02:17:33;;;;;;;10.10;3.88;;;;;;;;;;5019982;28;21731;-47
2021/07/07 02:19:59;;;;;;;8.38;3.75;;;;;;;;;;5011774;28;20041;-46
2021/07/07 02:22:26;;;;;;;10.75;3.92;;;;;;;;;;5025649;28;20124;-47
2021/07/07 02:24:52;;;;;;;7.97;4.00;;;;;;;;;;5015386;28;20141;-47
2021/07/07 02:27:18;;;;;;;11.23;3.88;;;;;;;;;;5017408;28;20052;-47
2021/07/07 02:29:45;;;;;;;7.78;3.60;;;;;;;;;;5012420;28;20581;-46
2021/07/07 02:32:11;;;;;;;13.15;4.22;;;;;;;;;;5001488;28;20132;-46
2021/07/07 02:34:38;;;;;;;8.63;4.43;;;;;;;;;;5006338;28;20085;-47
2021/07/07 02:37:04;;;;;;;10.13;4.13;;;;;;;;;;5004857;28;20042;-47
2021/07/07 02:39:30;;;;;;;11.38;4.60;;;;;;;;;;5003341;28;20141;-50
2021/07/07 02:41:57;;;;;;;9.35;4.38;;;;;;;;;;5005132;28;20058;-46
2021/07/07 02:44:23;;;;;;;8.13;4.57;;;;;;;;;;5026286;28;20128;-47
2021/07/07 02:46:49;;;;;;;8.07;3.80;;;;;;;;;;5018325;28;20145;-46
2021/07/07 02:49:16;;;;;;;10.70;4.90;;;;;;;;;;5007974;28;20054;-48
2021/07/07 02:51:43;;;;;;;12.25;4.40;;;;;;;;;;5002390;28;20061;-47
2021/07/07 02:54:09;;;;;;;8.48;4.60;;;;;;;;;;4997296;28;20132;-48
2021/07/07 02:56:35;;;;;;;9.15;5.20;;;;;;;;;;5007691;28;20168;-48
2021/07/07 02:59:02;;;;;;;11.68;5.38;;;;;;;;;;5014263;28;20804;-48
2021/07/07 03:01:28;;;;;;;9.43;5.03;;;;;;;;;;5024350;28;20124;-47
2021/07/07 03:03:55;;;;;;;7.78;5.05;;;;;;;;;;5019845;28;20049;-46
2021/07/07 03:06:21;;;;;;;8.20;4.53;;;;;;;;;;5015757;28;20128;-46
2021/07/07 03:08:48;;;;;;;9.18;5.95;;;;;;;;;;5012162;28;20137;-47
2021/07/07 03:11:14;;;;;;;9.35;4.93;;;;;;;;;;5023359;28;20771;-47
2021/07/07 03:13:40;;;;;;;7.60;5.15;;;;;;;;;;5025741;28;20053;-46
2021/07/07 03:16:07;;;;;;;9.70;5.45;;;;;;;;;;5016191;28;20449;-48
2021/07/07 03:18:33;;;;;;;12.30;5.45;;;;;;;;;;5019260;28;20076;-48
2021/07/07 03:21:00;;;;;;;13.77;5.65;;;;;;;;;;5009800;28;20398;-47
2021/07/07 03:23:26;;;;;;;13.43;5.20;;;;;;;;;;5009100;28;20148;-46
2021/07/07 03:25:54;;;;;;;9.25;5.00;;;;;;;;;;5017536;28;20096;-47
2021/07/07 03:28:21;;;;;;;7.40;5.40;;;;;;;;;;5013853;28;20656;-47
2021/07/07 03:30:48;;;;;;;11.55;5.75;;;;;;;;;;5024297;28;20569;-47
2021/07/07 03:33:14;;;;;;;9.65;5.82;;;;;;;;;;5006069;28;20541;-48
2021/07/07 03:35:41;;;;;;;12.32;5.43;;;;;;;;;;5023946;28;20049;-47
2021/07/07 03:38:07;;;;;;;11.85;5.57;;;;;;;;;;5003607;28;20160;-46
2021/07/07 03:40:35;;;;;;;9.80;6.03;;;;;;;;;;5017907;28;20447;-46
2021/07/07 03:43:01;;;;;;;9.43;5.85;;;;;;;;;;4998769;28;20137;-46
2021/07/07 03:45:28;;;;;;;13.32;6.25;;;;;;;;;;5014217;28;20081;-47
2021/07/07 03:47:55;;;;;;;12.57;7.03;;;;;;;;;;5017277;28;20081;-48
2021/07/07 03:50:21;;;;;;;14.40;6.15;;;;;;;;;;5017722;28;20238;-47
2021/07/07 03:52:48;;;;;;;12.05;6.75;;;;;;;;;;5013602;28;20129;-47
2021/07/07 03:55:16;;;;;;;12.85;6.78;;;;;;;;;;5013344;28;20145;-47
2021/07/07 03:57:42;;;;;;;20.38;6.97;;;;;;;;;;5009629;28;20528;-47
2021/07/07 04:00:10;;;;;;;13.25;6.88;;;;;;;;;;5013442;28;20455;-46
2021/07/07 04:02:37;;;;;;;15.87;6.40;;;;;;;;;;5022815;28;20488;-46
2021/07/07 04:05:05;;;;;;;16.05;6.63;;;;;;;;;;5025036;28;20485;-48
2021/07/07 04:07:31;;;;;;;13.20;6.88;;;;;;;;;;5016638;28;20458;-46
2021/07/07 04:09:57;;;;;;;13.85;6.30;;;;;;;;;;5015207;28;20509;-47
2021/07/07 04:12:24;;;;;;;13.05;7.15;;;;;;;;;;5005343;28;20104;-47
2021/07/07 04:14:51;;;;;;;12.98;6.85;;;;;;;;;;5014486;28;20124;-48
2021/07/07 04:17:17;;;;;;;11.13;6.47;;;;;;;;;;5011011;28;20081;-49
2021/07/07 04:19:43;;;;;;;11.18;6.90;;;;;;;;;;5018948;28;20140;-47
2021/07/07 04:22:10;;;;;;;10.48;6.28;;;;;;;;;;5014855;28;20148;-48
2021/07/07 04:24:36;;;;;;;15.35;7.18;;;;;;;;;;5010444;28;20801;-46
2021/07/07 04:27:03;;;;;;;12.63;7.03;;;;;;;;;;5011124;28;20060;-48
2021/07/07 04:29:31;;;;;;;17.10;6.20;;;;;;;;;;5003284;28;20149;-47
2021/07/07 04:31:57;;;;;;;12.27;6.03;;;;;;;;;;5007669;28;20084;-46
2021/07/07 04:34:24;;;;;;;14.35;6.53;;;;;;;;;;5002642;28;20156;-46
2021/07/07 04:36:51;;;;;;;14.93;6.47;;;;;;;;;;5011525;28;20456;-47
2021/07/07 04:39:17;;;;;;;21.38;7.90;;;;;;;;;;5011668;28;20069;-47
2021/07/07 04:41:44;;;;;;;12.85;6.60;;;;;;;;;;5016494;28;20123;-47
2021/07/07 04:44:10;;;;;;;16.63;6.75;;;;;;;;;;5015802;28;20853;-46
2021/07/07 04:46:37;;;;;;;12.65;6.65;;;;;;;;;;5012286;28;20057;-47
2021/07/07 04:49:03;;;;;;;13.75;6.97;;;;;;;;;;5017243;28;20051;-47
2021/07/07 04:51:30;;;;;;;18.98;6.93;;;;;;;;;;5004927;28;20140;-47
2021/07/07 04:53:57;;;;;;;16.98;6.80;;;;;;;;;;5012540;28;20091;-46
2021/07/07 04:56:23;;;;;;;13.85;6.65;;;;;;;;;;5001548;28;20049;-48
2021/07/07 04:58:50;;;;;;;20.10;6.53;;;;;;;;;;5009555;28;20089;-46
2021/07/07 05:01:16;;;;;;;12.52;6.00;;;;;;;;;;5017500;28;20136;-46
2021/07/07 05:03:43;;;;;;;14.00;6.90;;;;;;;;;;5019146;28;20088;-47
2021/07/07 05:06:09;;;;;;;15.10;6.32;;;;;;;;;;5018154;28;20470;-47
2021/07/07 05:08:35;;;;;;;18.88;7.38;;;;;;;;;;5016712;28;20136;-46
2021/07/07 05:11:02;;;;;;;18.05;6.55;;;;;;;;;;5025722;28;20049;-47
2021/07/07 05:13:29;;;;;;;22.17;7.15;;;;;;;;;;5008045;28;20466;-47
2021/07/07 05:15:56;;;;;;;16.95;6.22;;;;;;;;;;5011854;28;20050;-47
2021/07/07 05:18:23;;;;;;;14.43;6.20;;;;;;;;;;5017324;28;20041;-47
2021/07/07 05:20:49;;;;;;;16.08;6.20;;;;;;;;;;5021635;28;20089;-47
2021/07/07 05:23:15;;;;;;;14.48;6.15;;;;;;;;;;5024462;28;20049;-47
2021/07/07 05:25:42;;;;;;;16.88;6.75;;;;;;;;;;5020687;28;20096;-47
2021/07/07 05:28:08;;;;;;;15.13;6.32;;;;;;;;;;5018828;28;20588;-48
2021/07/07 05:30:35;;;;;;;13.60;6.53;;;;;;;;;;5006364;28;20148;-46
2021/07/07 05:33:02;;;;;;;16.92;6.75;;;;;;;;;;5009589;28;20082;-48
2021/07/07 05:35:29;;;;;;;17.20;7.63;;;;;;;;;;5013164;28;20049;-47
2021/07/07 05:37:55;;;;;;;16.20;6.40;;;;;;;;;;5017721;28;20145;-47
2021/07/07 05:40:23;;;;;;;16.40;5.78;;;;;;;;;;5021700;28;20458;-47
2021/07/07 05:42:52;;;;;;;16.30;5.80;;;;;;;;;;5017656;28;20088;-47
2021/07/07 05:45:19;;;;;;;14.05;5.88;;;;;;;;;;5006245;28;20362;-47
2021/07/07 05:47:45;;;;;;;17.85;6.03;;;;;;;;;;5011680;28;20837;-46
2021/07/07 05:50:13;;;;;;;17.67;6.55;;;;;;;;;;5021915;28;20115;-47
2021/07/07 05:52:39;;;;;;;14.00;6.03;;;;;;;;;;5017240;28;20088;-47
2021/07/07 05:55:06;;;;;;;20.60;6.00;;;;;;;;;;5023372;28;20141;-47
2021/07/07 05:57:39;;;;;;;17.85;7.15;;;;;;;;;;5019937;28;20081;-49
2021/07/07 06:00:15;;;;;;;20.88;6.45;;;;;;;;;;5020708;28;20085;-47
2021/07/07 06:02:42;;;;;;;17.70;6.90;;;;;;;;;;5024790;28;20485;-47
2021/07/07 06:05:09;;;;;;;21.90;7.82;;;;;;;;;;5012017;28;20049;-48
2021/07/07 06:07:36;;;;;;;18.83;6.85;;;;;;;;;;5015146;28;20097;-47
2021/07/07 06:10:03;;;;;;;19.67;7.07;;;;;;;;;;5006689;28;20058;-47
2021/07/07 06:12:30;;;;;;;19.98;7.03;;;;;;;;;;5018473;28;20088;-48
2021/07/07 06:14:56;;;;;;;14.63;6.63;;;;;;;;;;5016634;28;20085;-47
2021/07/07 06:17:22;;;;;;;18.63;6.57;;;;;;;;;;5019481;28;20129;-47
2021/07/07 06:19:49;;;;;;;13.98;6.40;;;;;;;;;;5018694;28;20576;-46
2021/07/07 06:22:16;;;;;;;15.35;6.28;;;;;;;;;;5021179;28;20055;-47
2021/07/07 06:24:42;;;;;;;18.00;7.68;;;;;;;;;;5022976;28;20136;-48
2021/07/07 06:27:08;;;;;;;15.40;7.22;;;;;;;;;;5009514;28;20073;-48
2021/07/07 06:29:35;;;;;;;20.55;7.30;;;;;;;;;;5006480;28;20068;-47
2021/07/07 06:32:01;;;;;;;17.85;6.88;;;;;;;;;;5010023;28;20799;-46
2021/07/07 06:34:28;;;;;;;14.93;6.85;;;;;;;;;;5014200;28;20166;-47
2021/07/07 06:36:54;;;;;;;19.08;7.40;;;;;;;;;;5004426;28;20053;-47
2021/07/07 06:39:20;;;;;;;17.40;7.15;;;;;;;;;;5029176;28;20136;-46
2021/07/07 06:41:47;;;;;;;19.90;7.85;;;;;;;;;;5035020;28;20246;-47
2021/07/07 06:44:13;;;;;;;17.83;8.13;;;;;;;;;;5040095;28;20500;-47
2021/07/07 06:46:39;;;;;;;18.73;7.13;;;;;;;;;;5042486;28;20132;-48
2021/07/07 06:49:06;;;;;;;21.05;7.30;;;;;;;;;;5022927;28;20068;-48
2021/07/07 06:51:32;;;;;;;20.42;7.10;;;;;;;;;;5031046;28;20136;-48
2021/07/07 06:53:59;;;;;;;15.48;6.97;;;;;;;;;;5026024;28;20074;-48
2021/07/07 06:56:25;;;;;;;14.38;6.93;;;;;;;;;;5047214;28;20564;-51
2021/07/07 06:58:51;;;;;;;18.65;7.20;;;;;;;;;;5040367;28;20643;-48
2021/07/07 07:01:18;;;;;;;16.23;7.20;;;;;;;;;;5040028;28;20053;-48
2021/07/07 07:03:44;;;;;;;18.70;6.80;;;;;;;;;;5028059;28;20057;-49
2021/07/07 07:06:11;;;;;;;18.63;7.13;;;;;;;;;;5030521;28;20080;-48
2021/07/07 07:08:37;;;;;;;15.57;6.72;;;;;;;;;;5037004;28;20057;-49
2021/07/07 07:11:04;;;;;;;17.23;6.47;;;;;;;;;;5035567;28;20148;-49
2021/07/07 07:13:30;;;;;;;22.63;6.90;;;;;;;;;;5043743;28;20140;-48
2021/07/07 07:15:57;;;;;;;18.50;6.53;;;;;;;;;;5020027;28;20064;-48
2021/07/07 07:18:23;;;;;;;17.80;6.28;;;;;;;;;;5040530;28;20049;-49
2021/07/07 07:20:53;;;;;;;19.50;7.15;;;;;;;;;;5039450;28;20077;-47
2021/07/07 07:23:20;;;;;;;17.13;5.65;;;;;;;;;;5029834;28;20490;-48
2021/07/07 07:25:46;;;;;;;16.25;5.82;;;;;;;;;;5027836;28;20863;-47
2021/07/07 07:28:13;;;;;;;23.48;6.03;;;;;;;;;;5032624;28;20068;-48
2021/07/07 07:30:39;;;;;;;16.00;5.50;;;;;;;;;;5025948;28;20688;-48
2021/07/07 07:33:06;;;;;;;21.30;6.35;;;;;;;;;;5016466;28;20045;-49
2021/07/07 07:35:32;;;;;;;18.17;5.93;;;;;;;;;;5043710;28;20049;-49
2021/07/07 07:38:02;;;;;;;15.77;5.13;;;;;;;;;;5032938;28;20082;-48
2021/07/07 07:40:35;;;;;;;16.70;5.25;;;;;;;;;;5032854;28;20156;-48
2021/07/07 07:43:02;;;;;;;13.10;5.30;;;;;;;;;;5033299;28;20497;-50
2021/07/07 07:45:28;;;;;;;18.48;5.53;;;;;;;;;;5017553;28;20483;-49
2021/07/07 07:47:55;;;;;;;13.93;5.45;;;;;;;;;;5033208;28;20103;-50
2021/07/07 07:50:22;;;;;;;15.38;5.40;;;;;;;;;;5022540;28;20059;-49
2021/07/07 07:52:49;;;;;;;14.80;4.85;;;;;;;;;;5035288;28;20775;-49
2021/07/07 07:55:16;;;;;;;12.40;5.10;;;;;;;;;;5023249;28;20049;-49
2021/07/07 07:57:43;;;;;;;20.52;5.43;;;;;;;;;;5030607;28;20131;-49
2021/07/07 08:00:20;;;;;;;14.90;5.40;;;;;;;;;;5039800;28;20049;-49
2021/07/07 08:02:48;;;;;;;12.75;5.18;;;;;;;;;;5043680;28;20057;-49
2021/07/07 08:05:15;;;;;;;;;;;;;;;;;;5045939;28;20049;-49
2021/07/07 08:07:42;;;;;;;15.35;5.45;;;;;;;;;;5038478;28;19975;-49
2021/07/07 08:10:09;;;;;;;15.18;4.60;;;;;;;;;;5043979;28;20052;-48
2021/07/07 08:12:36;;;;;;;13.80;4.53;;;;;;;;;;5034363;28;20059;-48
2021/07/07 08:15:03;;;;;;;17.08;5.00;;;;;;;;;;5041146;28;20624;-49
2021/07/07 08:17:30;;;;;;;13.65;4.20;;;;;;;;;;5039054;28;20544;-51
2021/07/07 08:19:57;;;;;;;14.05;4.03;;;;;;;;;;5042562;28;20052;-49
2021/07/07 08:22:23;;;;;;;13.35;4.40;;;;;;;;;;5038887;28;20160;-49
2021/07/07 08:24:51;;;;;;;14.98;4.47;;;;;;;;;;5020487;28;20099;-47
2021/07/07 08:27:17;;;;;;;15.18;4.57;;;;;;;;;;5030102;28;20159;-48
2021/07/07 08:29:43;;;;;;;10.15;4.72;;;;;;;;;;5023180;28;20447;-49
2021/07/07 08:32:10;;;;;;;15.52;5.00;;;;;;;;;;5025517;28;20125;-48
2021/07/07 08:34:37;;;;;;;15.45;4.28;;;;;;;;;;5034935;28;20131;-47
2021/07/07 08:37:03;;;;;;;10.88;3.92;;;;;;;;;;5030686;28;20173;-47
2021/07/07 08:39:30;;;;;;;19.85;3.90;;;;;;;;;;5027261;28;20152;-49
2021/07/07 08:41:57;;;;;;;14.75;4.47;;;;;;;;;;5044831;28;20164;-49
2021/07/07 08:44:24;;;;;;;13.02;3.63;;;;;;;;;;5038224;28;20137;-50
2021/07/07 08:46:52;;;;;;;8.23;3.70;;;;;;;;;;5025820;28;20141;-50
2021/07/07 08:49:20;;;;;;;9.65;3.50;;;;;;;;;;5031004;28;20045;-49
2021/07/07 08:51:46;;;;;;;13.27;4.05;;;;;;;;;;5031805;28;20484;-49
2021/07/07 08:54:13;;;;;;;14.05;3.90;;;;;;;;;;5032074;28;20135;-47
2021/07/07 08:56:41;;;;;;;13.30;3.40;;;;;;;;;;5043624;28;20704;-48
2021/07/07 08:59:12;;;;;;;15.10;3.55;;;;;;;;;;5043591;28;20153;-49
2021/07/07 09:01:57;;;;;;;14.65;3.45;;;;;;;;;;5033757;28;20092;-49
2021/07/07 09:04:27;;;;;;;11.40;3.40;;;;;;;;;;5048164;28;20081;-49
2021/07/07 09:06:58;;;;;;;9.23;3.10;;;;;;;;;;5030347;28;20109;-48
2021/07/07 09:09:34;;;;;;;11.75;3.10;;;;;;;;;;5042358;28;20045;-47
2021/07/07 09:12:00;;;;;;;13.57;3.40;;;;;;;;;;5037554;28;20169;-51
2021/07/07 09:14:32;;;;;;;11.52;3.40;;;;;;;;;;5040554;28;20072;-48
2021/07/07 09:17:00;;;;;;;13.93;3.28;;;;;;;;;;5048428;28;20159;-49
2021/07/07 09:19:27;;;;;;;9.93;3.13;;;;;;;;;;5021275;28;20436;-47
2021/07/07 09:21:55;;;;;;;10.15;3.00;;;;;;;;;;5025958;28;20088;-49
2021/07/07 09:24:24;;;;;;;14.88;3.45;;;;;;;;;;5030755;28;20192;-48
2021/07/07 09:27:04;;;;;;;12.23;3.50;;;;;;;;;;5043104;28;20107;-48
2021/07/07 09:29:32;;;;;;;10.90;3.10;;;;;;;;;;5010285;28;20557;-47
2021/07/07 09:31:58;;;;;;;12.30;3.38;;;;;;;;;;5030892;28;20479;-49
2021/07/07 09:34:25;;;;;;;10.38;3.33;;;;;;;;;;5037757;28;20091;-47
2021/07/07 09:36:53;;;;;;;13.07;3.30;;;;;;;;;;5029191;28;20088;-49
2021/07/07 09:39:20;;;;;;;15.50;3.90;;;;;;;;;;5032633;28;20133;-49
2021/07/07 09:41:49;;;;;;;14.85;3.58;;;;;;;;;;5015902;28;20085;-49
2021/07/07 09:44:18;;;;;;;8.05;3.05;;;;;;;;;;5042047;28;20147;-48
2021/07/07 09:46:44;;;;;;;14.07;3.10;;;;;;;;;;5036407;28;20152;-49
2021/07/07 09:49:11;;;;;;;10.10;2.97;;;;;;;;;;5037405;28;20042;-49
2021/07/07 09:51:38;;;;;;;10.63;3.22;;;;;;;;;;5037371;28;20140;-47
2021/07/07 09:54:05;;;;;;;13.45;3.00;;;;;;;;;;5032472;28;20955;-48
2021/07/07 09:56:32;;;;;;;12.27;3.13;;;;;;;;;;5044622;28;20139;-48
2021/07/07 09:58:59;;;;;;;14.20;3.30;;;;;;;;;;5039508;28;20057;-49
2021/07/07 10:01:26;;;;;;;11.50;3.00;;;;;;;;;;5046256;28;20057;-49
2021/07/07 10:03:53;;;;;;;10.48;3.13;;;;;;;;;;5040785;28;20055;-49
2021/07/07 10:06:21;;;;;;;10.73;3.10;;;;;;;;;;5047940;28;20437;-48
2021/07/07 10:08:48;;;;;;;12.60;3.35;;;;;;;;;;5039614;28;20512;-48
2021/07/07 10:11:16;;;;;;;17.70;3.30;;;;;;;;;;5040158;28;20827;-48
2021/07/07 10:13:42;;;;;;;14.85;3.33;;;;;;;;;;5035031;28;20132;-49
2021/07/07 10:16:09;;;;;;;11.18;2.72;;;;;;;;;;5039052;28;20053;-48
2021/07/07 10:18:36;;;;;;;12.82;2.90;;;;;;;;;;5046186;28;20128;-50
2021/07/07 10:21:03;;;;;;;8.07;2.90;;;;;;;;;;5040774;28;20135;-49
2021/07/07 10:23:32;;;;;;;8.55;2.88;;;;;;;;;;5038227;28;20048;-49
2021/07/07 10:26:00;;;;;;;9.95;2.80;;;;;;;;;;5035880;28;20049;-47
2021/07/07 10:28:27;;;;;;;;;;;;;;;;;;5048145;28;20088;-48
2021/07/07 10:30:58;;;;;;;13.70;3.40;;;;;;;;;;5023916;28;20060;-48
2021/07/07 10:33:27;;;;;;;8.73;2.63;;;;;;;;;;5031371;28;20047;-49
2021/07/07 10:36:12;;;;;;;12.70;2.88;;;;;;;;;;5046863;28;20057;-49
2021/07/07 10:38:39;;;;;;;10.95;2.72;;;;;;;;;;5034401;28;20124;-48
2021/07/07 10:41:05;;;;;;;13.88;2.90;;;;;;;;;;5048361;28;20130;-48
2021/07/07 10:43:43;;;;;;;8.55;2.92;;;;;;;;;;5033043;28;20161;-49
2021/07/07 10:46:13;;;;;;;9.30;2.78;;;;;;;;;;5025920;28;20140;-48
2021/07/07 10:48:40;;;;;;;7.57;2.88;;;;;;;;;;5034538;28;20053;-48
2021/07/07 10:51:09;;;;;;;8.88;3.00;;;;;;;;;;5023279;28;20128;-48
2021/07/07 10:53:36;;;;;;;10.73;3.22;;;;;;;;;;5033137;28;20076;-48
2021/07/07 10:56:04;;;;;;;7.97;3.30;;;;;;;;;;5045950;28;20549;-49
2021/07/07 10:58:30;;;;;;;11.00;3.17;;;;;;;;;;5046830;28;20106;-49
2021/07/07 11:00:57;;;;;;;12.88;3.13;;;;;;;;;;5040171;28;20536;-48
2021/07/07 11:03:35;;;;;;;14.60;2.83;;;;;;;;;;5044906;28;20084;-48
2021/07/07 11:06:23;;;;;;;11.20;3.17;;;;;;;;;;5035250;28;20060;-48
2021/07/07 11:08:51;;;;;;;9.73;2.80;;;;;;;;;;5044486;28;20132;-49
2021/07/07 11:11:22;;;;;;;11.57;3.20;;;;;;;;;;5026517;28;20163;-48
2021/07/07 11:13:49;;;;;;;8.48;2.50;;;;;;;;;;5046509;28;20761;-48
2021/07/07 11:16:22;;;;;;;9.32;2.70;;;;;;;;;;5037642;28;20048;-49
2021/07/07 11:18:50;;;;;;;9.77;4.13;;;;;;;;;;5029270;28;20049;-49
2021/07/07 11:21:17;;;;;;;8.87;2.60;;;;;;;;;;5023182;28;20051;-49
2021/07/07 11:23:44;;;;;;;10.38;3.15;;;;;;;;;;5035507;28;20428;-48
2021/07/07 11:26:12;;;;;;;8.82;2.60;;;;;;;;;;5040017;28;20057;-49
2021/07/07 11:28:38;;;;;;;16.35;3.20;;;;;;;;;;5024286;28;20140;-48
2021/07/07 11:31:04;;;;;;;11.88;2.90;;;;;;;;;;5027541;28;20136;-50
2021/07/07 11:33:31;;;;;;;11.23;3.00;;;;;;;;;;5020544;28;20432;-49
2021/07/07 11:35:57;;;;;;;7.82;2.72;;;;;;;;;;5045682;28;20048;-49
2021/07/07 11:38:28;;;;;;;15.23;2.80;;;;;;;;;;5025653;28;20127;-48
2021/07/07 11:40:56;;;;;;;10.55;2.65;;;;;;;;;;5046910;28;20453;-49
2021/07/07 11:43:25;;;;;;;6.35;2.42;;;;;;;;;;5022556;28;20052;-49
2021/07/07 11:45:59;;;;;;;8.07;2.35;;;;;;;;;;5028206;28;20416;-48
2021/07/07 11:48:32;;;;;;;8.05;2.25;;;;;;;;;;5023838;28;20049;-50
2021/07/07 11:51:00;;;;;;;5.65;2.50;;;;;;;;;;5028853;28;20550;-49
2021/07/07 11:53:37;;;;;;;10.00;4.28;;;;;;;;;;5027413;28;20128;-49
2021/07/07 11:56:08;;;;;;;9.10;3.05;;;;;;;;;;5026988;28;20081;-49
2021/07/07 11:58:44;;;;;;;10.13;2.50;;;;;;;;;;5032892;28;20132;-50
2021/07/07 12:01:18;;;;;;;10.38;2.70;;;;;;;;;;5020646;28;20050;-50
2021/07/07 12:04:14;;;;;;;6.70;2.83;;;;;;;;;;5039984;28;20048;-49
2021/07/07 12:06:42;;;;;;;10.02;2.80;;;;;;;;;;5019681;28;20710;-50
2021/07/07 12:09:17;;;;;;;8.07;2.67;;;;;;;;;;5039334;28;20064;-49
2021/07/07 12:11:48;;;;;;;7.53;2.80;;;;;;;;;;5029845;28;20061;-51
2021/07/07 12:14:14;;;;;;;9.45;2.58;;;;;;;;;;5032111;28;20485;-50
2021/07/07 12:16:41;;;;;;;8.75;2.70;;;;;;;;;;5038527;28;20174;-50
2021/07/07 12:19:10;;;;;;;8.23;2.63;;;;;;;;;;5041765;28;20142;-49
2021/07/07 12:21:47;;;;;;;5.25;2.28;;;;;;;;;;5048093;28;20135;-49
2021/07/07 12:24:30;;;;;;;7.53;2.28;;;;;;;;;;5023622;28;20114;-50
2021/07/07 12:26:59;;;;;;;7.28;2.70;;;;;;;;;;5038142;28;20089;-52
2021/07/07 12:29:26;;;;;;;10.07;2.80;;;;;;;;;;5027456;28;20056;-52
2021/07/07 12:31:53;;;;;;;7.30;2.80;;;;;;;;;;5040282;28;20481;-51
2021/07/07 12:34:24;;;;;;;9.98;2.88;;;;;;;;;;5030486;28;20559;-51
2021/07/07 12:36:52;;;;;;;5.80;2.53;;;;;;;;;;5025215;28;20431;-51
2021/07/07 12:39:19;;;;;;;8.10;2.90;;;;;;;;;;5032402;28;20044;-52
2021/07/07 12:41:46;;;;;;;;;;;;;;;;;;5059028;28;20145;-51
2021/07/07 12:44:13;;;;;;;8.57;2.80;;;;;;;;;;5048705;28;19964;-51
2021/07/07 12:46:46;;;;;;;5.68;2.78;;;;;;;;;;5042941;28;20147;-53
2021/07/07 12:49:13;;;;;;;8.07;2.78;;;;;;;;;;5048609;28;20058;-53
2021/07/07 12:51:39;;;;;;;7.22;2.83;;;;;;;;;;5034798;28;20087;-52
2021/07/07 12:54:16;;;;;;;7.30;2.88;;;;;;;;;;5027490;28;20132;-53
2021/07/07 12:56:59;;;;;;;8.27;2.63;;;;;;;;;;5012929;28;20144;-50
2021/07/07 12:59:26;;;;;;;6.25;2.33;;;;;;;;;;5029549;28;20128;-52
2021/07/07 13:02:01;;;;;;;9.38;2.90;;;;;;;;;;5023114;28;20049;-50
2021/07/07 13:04:28;;;;;;;8.20;2.75;;;;;;;;;;5009001;28;20531;-52
2021/07/07 13:07:09;;;;;;;7.13;2.70;;;;;;;;;;5022697;28;20565;-53
2021/07/07 13:09:36;;;;;;;5.60;2.50;;;;;;;;;;5039723;28;20045;-50
2021/07/07 13:12:04;;;;;;;7.73;3.00;;;;;;;;;;5030556;28;20075;-50
2021/07/07 13:14:30;;;;;;;7.20;2.78;;;;;;;;;;5025622;28;20041;-50
2021/07/07 13:16:57;;;;;;;6.60;2.50;;;;;;;;;;5030326;28;20077;-52
2021/07/07 13:19:33;;;;;;;7.57;2.53;;;;;;;;;;5018154;28;20080;-50
2021/07/07 13:22:01;;;;;;;3.88;1.95;;;;;;;;;;5028516;28;20588;-50
2021/07/07 13:24:27;;;;;;;;;;;;;;;;;;5022768;28;20140;-52
2021/07/07 13:27:12;;;;;;;5.72;2.03;;;;;;;;;;5029600;28;19971;-51
2021/07/07 13:29:45;;;;;;;6.07;2.20;;;;;;;;;;5024820;28;20092;-53
2021/07/07 13:32:19;;;;;;;5.50;2.40;;;;;;;;;;5024832;28;20149;-53
2021/07/07 13:34:47;;;;;;;6.20;2.22;;;;;;;;;;5013688;28;20053;-51
2021/07/07 13:37:15;;;;;;;4.15;2.15;;;;;;;;;;5022930;28;20792;-52
2021/07/07 13:39:43;;;;;;;5.57;2.13;;;;;;;;;;5028820;28;20076;-52
2021/07/07 13:42:10;;;;;;;;;;;;;;;;;;5024610;28;20057;-49
2021/07/07 13:44:37;;;;;;;6.20;2.50;;;;;;;;;;5028628;28;19925;-55
2021/07/07 13:47:03;;;;;;;8.95;2.28;;;;;;;;;;5034877;28;20061;-52
2021/07/07 13:49:29;;;;;;;8.18;2.13;;;;;;;;;;5029160;28;20078;-52
2021/07/07 13:51:56;;;;;;;3.33;2.33;;;;;;;;;;5039899;28;20084;-49
2021/07/07 13:54:22;;;;;;;5.45;2.47;;;;;;;;;;5043570;28;20163;-50
2021/07/07 13:56:48;;;;;;;6.30;2.22;;;;;;;;;;5046068;28;20136;-51
2021/07/07 13:59:15;;;;;;;4.50;2.33;;;;;;;;;;5022994;28;20896;-51
2021/07/07 14:01:41;;;;;;;5.30;1.90;;;;;;;;;;5027286;28;20091;-51
2021/07/07 14:04:09;;;;;;;4.97;2.08;;;;;;;;;;5023408;28;20051;-54
2021/07/07 14:06:36;;;;;;;4.00;2.30;;;;;;;;;;5026388;28;20061;-50
2021/07/07 14:09:03;;;;;;;4.17;2.27;;;;;;;;;;5030217;28;20136;-53
2021/07/07 14:11:31;;;;;;;5.85;2.50;;;;;;;;;;5027695;28;20358;-51
2021/07/07 14:13:57;;;;;;;6.90;2.78;;;;;;;;;;5013145;28;20230;-51
2021/07/07 14:16:23;;;;;;;6.25;2.42;;;;;;;;;;5022702;28;20045;-50
2021/07/07 14:18:50;;;;;;;5.18;2.78;;;;;;;;;;5041500;28;20044;-51
2021/07/07 14:21:16;;;;;;;6.40;2.42;;;;;;;;;;5017067;28;20049;-51
2021/07/07 14:23:43;;;;;;;7.03;2.45;;;;;;;;;;5028497;28;20060;-50
2021/07/07 14:26:10;;;;;;;4.38;2.10;;;;;;;;;;5022047;28;20470;-51
2021/07/07 14:28:36;;;;;;;8.15;2.70;;;;;;;;;;5028383;28;20069;-50
2021/07/07 14:31:03;;;;;;;4.80;2.97;;;;;;;;;;5023024;28;20132;-52
2021/07/07 14:33:29;;;;;;;7.38;2.72;;;;;;;;;;5022869;28;20061;-50
2021/07/07 14:35:56;;;;;;;7.97;3.03;;;;;;;;;;5028827;28;20140;-49
2021/07/07 14:38:22;;;;;;;4.18;2.60;;;;;;;;;;5023082;28;20156;-50
2021/07/07 14:40:48;;;;;;;7.78;2.70;;;;;;;;;;5028130;28;20141;-51